CheckWX is a tool to help pilots better visualize weather data.  It is not intended as a substitute for an official pre-flight weather briefing.

02:08:30 UTC

DAOV METAR
Ghriss Airport
Algeria
Current

1 hour ago

DAOV 230100Z 21003KT 9999 FEW023 12/10 Q1005
Observed
Apr-23 @ 01:00 UTC
Wind
  • 210° at 3 KTS
Visibility
10,000+ meters
Flight Rules
VFR
Cloud Levels
  • Few at 2,300' AGL
Temperature
12°C / 54°F
Dewpoint
10°C / 50°F
Humidity
88%
Altimeter
29.68" Hg
Pressure
1004.92 hPa
Previous

2 hours ago

DAOV 230000Z 22006KT 9999 SCT023 SCT100 12/09 Q1006
Observed
Apr-23 @ 00:00 UTC
Wind
  • 220° at 6 KTS
Visibility
10,000+ meters
Flight Rules
VFR
Cloud Levels
  • Scattered at 2,300' AGL
  • Scattered at 10,000' AGL
Temperature
12°C / 54°F
Dewpoint
C / 48°F
Humidity
82%
Altimeter
29.7" Hg
Pressure
1005.92 hPa
Previous

3 hours ago

DAOV 222300Z 25004KT 9999 SCT023 SCT100 12/08 Q1006
Observed
Apr-22 @ 23:00 UTC
Wind
  • 250° at 4 KTS
Visibility
10,000+ meters
Flight Rules
VFR
Cloud Levels
  • Scattered at 2,300' AGL
  • Scattered at 10,000' AGL
Temperature
12°C / 54°F
Dewpoint
C / 46°F
Humidity
77%
Altimeter
29.7" Hg
Pressure
1005.92 hPa